Terminal Aerodrome Forecast
Issued by NWS Wakefield, VA

Home | Current Version | Previous Version | Text Only | Print | Product List | Glossary On
Versions: 1 2 3 4 5 6 7 8 9 10 11 12 13 14 15 16 17 18 19 20 21 22 23 24
000
FTUS41 KAKQ 022320
TAFSBY
TAF
KSBY 022320Z 0300/0324 19006KT P6SM BKN080
     FM030500 22006KT P6SM SCT070
     FM031100 24009KT P6SM SCT120
     FM031800 25011G19KT P6SM SCT080 BKN250=

USA.gov is the U.S. government's official web portal to all federal, state and local government web resources and services.